Stolt Effort — ZCSP6 — position and weather

sailwx.info

Track history (hours):
 
Tides and Currents Weather Stations Pressure Air Temp Water Temp Dewpoint Dewpoint Depression Visibility Wind Speed Wind Dir Waves Ship Positions

Stolt Effort

Last reported at 2016-Apr-19 23:11 UTC. Time now 2016-May-05 08:29 UTC.
Position N 29°21' W 094°47'.
Warning: this ship's position is 15 days out of date.

Length 176 m; draft 11.1 m.

Type: Ship (hazmat cat B). MMSI: 319445000.

Date/timePositionNaut miles runAvg speedWind from/ knotsBaromVisibWave heightAir tempDewpointWater temp
2016-Apr-19 23:11N 29°21' W 094°47'812.7
2016-Apr-19 22:33N 29°28' W 094°51'1212.4
2016-Apr-19 21:33N 29°39' W 094°58'9 9.0
2016-Apr-19 20:33N 29°46' W 095°05'2 0.7
2016-Apr-19 18:24N 29°45' W 095°06'0 0.0
2016-Apr-19 16:24N 29°45' W 095°06'0 0.0
2016-Apr-19 15:21N 29°45' W 095°06'0 0.0
2016-Apr-19 14:21N 29°45' W 095°06'0 0.0
2016-Apr-19 13:33N 29°45' W 095°06'0 0.0
2016-Apr-19 12:33N 29°45' W 095°06'0 0.0
2016-Apr-19 11:30N 29°45' W 095°06'0 0.0
2016-Apr-19 10:33N 29°45' W 095°06'0 0.0
2016-Apr-19 09:30N 29°45' W 095°06'0 0.0
2016-Apr-19 08:21N 29°45' W 095°06'0 0.0
2016-Apr-19 07:33N 29°45' W 095°06'0 0.0
2016-Apr-19 06:33N 29°45' W 095°06'0 0.0
2016-Apr-19 05:33N 29°45' W 095°06'0 0.2
2016-Apr-19 04:33N 29°45' W 095°06'4 4.4
2016-Apr-19 03:33N 29°43' W 095°01'10 9.8
2016-Apr-19 02:33N 29°35' W 094°56'1312.4
2016-Apr-19 01:28N 29°23' W 094°48'  
2016-Apr-16 16:33N 29°21' W 094°47'1212.2
2016-Apr-16 15:33N 29°32' W 094°54'1211.6
2016-Apr-16 14:34N 29°42' W 095°00'6 6.1
2016-Apr-16 13:33N 29°44' W 095°07'1 1.0
2016-Apr-16 12:29N 29°44' W 095°08'0 0.0
2016-Apr-16 11:32N 29°44' W 095°08'0 0.0
2016-Apr-16 10:29N 29°44' W 095°08'0 0.0
2016-Apr-16 08:26N 29°44' W 095°08'0 0.0
2016-Apr-16 07:20N 29°44' W 095°08'0 0.0
2016-Apr-16 06:29N 29°44' W 095°08'0 0.0
2016-Apr-16 05:32N 29°44' W 095°08'0 0.0
2016-Apr-16 04:32N 29°44' W 095°08'0 0.0
2016-Apr-16 03:26N 29°44' W 095°08'0 0.0
2016-Apr-16 02:32N 29°44' W 095°08'0 0.0
2016-Apr-16 01:29N 29°44' W 095°08'0 0.0
2016-Apr-16 00:26N 29°44' W 095°08'0 0.0
2016-Apr-15 23:32N 29°44' W 095°08'0 0.0
2016-Apr-15 22:32N 29°44' W 095°08'0 0.0
2016-Apr-15 21:32N 29°44' W 095°08'0 0.0
2016-Apr-15 20:32N 29°44' W 095°08'0 0.0
2016-Apr-15 19:32N 29°44' W 095°08'0 0.0
2016-Apr-15 18:20N 29°44' W 095°08'0 0.0
2016-Apr-15 17:20N 29°44' W 095°08'0 0.0
2016-Apr-15 16:29N 29°44' W 095°08'0 0.0
2016-Apr-15 15:32N 29°44' W 095°08'0 0.0
2016-Apr-15 14:32N 29°44' W 095°08'0 0.0
2016-Apr-15 13:32N 29°44' W 095°08'0 0.0
2016-Apr-15 12:32N 29°44' W 095°08'0 0.0
2016-Apr-15 11:32N 29°44' W 095°08'0 0.0
2016-Apr-15 10:32N 29°44' W 095°08'0 0.0
2016-Apr-15 09:26N 29°44' W 095°08'0 0.0
2016-Apr-15 08:32N 29°44' W 095°08'3 3.1
2016-Apr-15 07:33N 29°46' W 095°05'8 8.0
2016-Apr-15 06:33N 29°40' W 094°59'4 4.1
2016-Apr-15 05:33N 29°37' W 095°01'0 0.1
2016-Apr-15 04:31N 29°37' W 095°01'0 0.0
2016-Apr-15 03:31N 29°37' W 095°01'0 0.0
2016-Apr-15 02:31N 29°37' W 095°01'0 0.0
2016-Apr-15 01:31N 29°37' W 095°01'0 0.0
2016-Apr-15 00:31N 29°37' W 095°01'0 0.0
2016-Apr-14 23:31N 29°37' W 095°01'0 0.0
2016-Apr-14 22:31N 29°37' W 095°01'0 0.0
2016-Apr-14 21:31N 29°37' W 095°01'0 0.0
2016-Apr-14 20:31N 29°37' W 095°01'0 0.0
2016-Apr-14 19:31N 29°37' W 095°01'0 0.0
2016-Apr-14 18:31N 29°37' W 095°01'0 0.0
2016-Apr-14 17:31N 29°37' W 095°01'0 0.0
2016-Apr-14 16:31N 29°37' W 095°01'0 0.0
2016-Apr-14 15:31N 29°37' W 095°01'0 0.0
2016-Apr-14 14:31N 29°37' W 095°01'0 0.0
2016-Apr-14 13:31N 29°37' W 095°01'0 0.0
2016-Apr-14 12:31N 29°37' W 095°01'0 0.0
2016-Apr-14 11:31N 29°37' W 095°01'0 0.0
2016-Apr-14 10:28N 29°37' W 095°01'0 0.0
2016-Apr-14 09:31N 29°37' W 095°01'0 0.0
2016-Apr-14 08:31N 29°37' W 095°01'0 0.0
2016-Apr-14 07:31N 29°37' W 095°01'0 0.0
2016-Apr-14 06:31N 29°37' W 095°01'0 0.0
2016-Apr-14 05:31N 29°37' W 095°01'0 0.0
2016-Apr-14 04:31N 29°37' W 095°01'0 0.0
2016-Apr-14 03:31N 29°37' W 095°01'0 0.0
2016-Apr-14 02:28N 29°37' W 095°01'0 0.0
2016-Apr-14 01:31N 29°37' W 095°01'0 0.0
2016-Apr-14 00:31N 29°37' W 095°01'0 0.0
2016-Apr-13 23:31N 29°37' W 095°01'0 0.0
2016-Apr-13 22:31N 29°37' W 095°01'0 0.0
2016-Apr-13 21:31N 29°37' W 095°01'0 0.0
2016-Apr-13 20:31N 29°37' W 095°01'0 0.0
2016-Apr-13 19:31N 29°37' W 095°01'0 0.0
2016-Apr-13 18:31N 29°37' W 095°01'0 0.0
2016-Apr-13 17:31N 29°37' W 095°01'0 0.0
2016-Apr-13 16:31N 29°37' W 095°01'0 0.0
2016-Apr-13 15:31N 29°37' W 095°01'0 0.0
2016-Apr-13 14:31N 29°37' W 095°01'0 0.0
2016-Apr-13 13:31N 29°37' W 095°01'0 0.0
2016-Apr-13 12:31N 29°37' W 095°01'0 0.0
2016-Apr-13 11:31N 29°37' W 095°01'0 0.0
2016-Apr-13 10:31N 29°37' W 095°01'0 0.0
2016-Apr-13 09:31N 29°37' W 095°01'0 0.0
2016-Apr-13 08:31N 29°37' W 095°01'0 0.0
2016-Apr-13 07:31N 29°37' W 095°01'5 5.1
2016-Apr-13 06:33N 29°35' W 094°56'1212.2
2016-Apr-13 05:32N 29°24' W 094°49'  
2016-Apr-10 21:28N 29°21' W 094°46'7 7.9
2016-Apr-10 20:32N 29°22' W 094°54'1 0.2
2016-Apr-10 15:14N 29°22' W 094°55'0 0.0
2016-Apr-10 10:26N 29°22' W 094°55'0 0.0
2016-Apr-10 04:33N 29°22' W 094°55'4 3.7
2016-Apr-10 03:33N 29°22' W 094°51'4 1.2
2016-Apr-10 00:07N 29°21' W 094°46'812.4
2016-Apr-09 23:29N 29°27' W 094°51'  
Track history (hours):
 
Tides and Currents Weather Stations Pressure Air Temp Water Temp Dewpoint Dewpoint Depression Visibility Wind Speed Wind Dir Waves Ship Positions

Stolt Effort

Last reported at 2016-Apr-19 23:11 UTC. Time now 2016-May-05 08:29 UTC.
Position N 29°21' W 094°47'.
Warning: this ship's position is 15 days out of date.

Length 176 m; draft 11.1 m.

Type: Ship (hazmat cat B). MMSI: 319445000.

Date/timePositionNaut miles runAvg speedWind from/ knotsBaromVisibWave heightAir tempDewpointWater temp
2016-Apr-19 23:11N 29°21' W 094°47'812.7
2016-Apr-19 22:33N 29°28' W 094°51'1212.4
2016-Apr-19 21:33N 29°39' W 094°58'9 9.0
2016-Apr-19 20:33N 29°46' W 095°05'2 0.7
2016-Apr-19 18:24N 29°45' W 095°06'0 0.0
2016-Apr-19 16:24N 29°45' W 095°06'0 0.0
2016-Apr-19 15:21N 29°45' W 095°06'0 0.0
2016-Apr-19 14:21N 29°45' W 095°06'0 0.0
2016-Apr-19 13:33N 29°45' W 095°06'0 0.0
2016-Apr-19 12:33N 29°45' W 095°06'0 0.0
2016-Apr-19 11:30N 29°45' W 095°06'0 0.0
2016-Apr-19 10:33N 29°45' W 095°06'0 0.0
2016-Apr-19 09:30N 29°45' W 095°06'0 0.0
2016-Apr-19 08:21N 29°45' W 095°06'0 0.0
2016-Apr-19 07:33N 29°45' W 095°06'0 0.0
2016-Apr-19 06:33N 29°45' W 095°06'0 0.0
2016-Apr-19 05:33N 29°45' W 095°06'0 0.2
2016-Apr-19 04:33N 29°45' W 095°06'4 4.4
2016-Apr-19 03:33N 29°43' W 095°01'10 9.8
2016-Apr-19 02:33N 29°35' W 094°56'1312.4
2016-Apr-19 01:28N 29°23' W 094°48'  
2016-Apr-16 16:33N 29°21' W 094°47'1212.2
2016-Apr-16 15:33N 29°32' W 094°54'1211.6
2016-Apr-16 14:34N 29°42' W 095°00'6 6.1
2016-Apr-16 13:33N 29°44' W 095°07'1 1.0
2016-Apr-16 12:29N 29°44' W 095°08'0 0.0
2016-Apr-16 11:32N 29°44' W 095°08'0 0.0
2016-Apr-16 10:29N 29°44' W 095°08'0 0.0
2016-Apr-16 08:26N 29°44' W 095°08'0 0.0
2016-Apr-16 07:20N 29°44' W 095°08'0 0.0
2016-Apr-16 06:29N 29°44' W 095°08'0 0.0
2016-Apr-16 05:32N 29°44' W 095°08'0 0.0
2016-Apr-16 04:32N 29°44' W 095°08'0 0.0
2016-Apr-16 03:26N 29°44' W 095°08'0 0.0
2016-Apr-16 02:32N 29°44' W 095°08'0 0.0
2016-Apr-16 01:29N 29°44' W 095°08'0 0.0
2016-Apr-16 00:26N 29°44' W 095°08'0 0.0
2016-Apr-15 23:32N 29°44' W 095°08'0 0.0
2016-Apr-15 22:32N 29°44' W 095°08'0 0.0
2016-Apr-15 21:32N 29°44' W 095°08'0 0.0
2016-Apr-15 20:32N 29°44' W 095°08'0 0.0
2016-Apr-15 19:32N 29°44' W 095°08'0 0.0
2016-Apr-15 18:20N 29°44' W 095°08'0 0.0
2016-Apr-15 17:20N 29°44' W 095°08'0 0.0
2016-Apr-15 16:29N 29°44' W 095°08'0 0.0
2016-Apr-15 15:32N 29°44' W 095°08'0 0.0
2016-Apr-15 14:32N 29°44' W 095°08'0 0.0
2016-Apr-15 13:32N 29°44' W 095°08'0 0.0
2016-Apr-15 12:32N 29°44' W 095°08'0 0.0
2016-Apr-15 11:32N 29°44' W 095°08'0 0.0
2016-Apr-15 10:32N 29°44' W 095°08'0 0.0
2016-Apr-15 09:26N 29°44' W 095°08'0 0.0
2016-Apr-15 08:32N 29°44' W 095°08'3 3.1
2016-Apr-15 07:33N 29°46' W 095°05'8 8.0
2016-Apr-15 06:33N 29°40' W 094°59'4 4.1
2016-Apr-15 05:33N 29°37' W 095°01'0 0.1
2016-Apr-15 04:31N 29°37' W 095°01'0 0.0
2016-Apr-15 03:31N 29°37' W 095°01'0 0.0
2016-Apr-15 02:31N 29°37' W 095°01'0 0.0
2016-Apr-15 01:31N 29°37' W 095°01'0 0.0
2016-Apr-15 00:31N 29°37' W 095°01'0 0.0
2016-Apr-14 23:31N 29°37' W 095°01'0 0.0
2016-Apr-14 22:31N 29°37' W 095°01'0 0.0
2016-Apr-14 21:31N 29°37' W 095°01'0 0.0
2016-Apr-14 20:31N 29°37' W 095°01'0 0.0
2016-Apr-14 19:31N 29°37' W 095°01'0 0.0
2016-Apr-14 18:31N 29°37' W 095°01'0 0.0
2016-Apr-14 17:31N 29°37' W 095°01'0 0.0
2016-Apr-14 16:31N 29°37' W 095°01'0 0.0
2016-Apr-14 15:31N 29°37' W 095°01'0 0.0
2016-Apr-14 14:31N 29°37' W 095°01'0 0.0
2016-Apr-14 13:31N 29°37' W 095°01'0 0.0
2016-Apr-14 12:31N 29°37' W 095°01'0 0.0
2016-Apr-14 11:31N 29°37' W 095°01'0 0.0
2016-Apr-14 10:28N 29°37' W 095°01'0 0.0
2016-Apr-14 09:31N 29°37' W 095°01'0 0.0
2016-Apr-14 08:31N 29°37' W 095°01'0 0.0
2016-Apr-14 07:31N 29°37' W 095°01'0 0.0
2016-Apr-14 06:31N 29°37' W 095°01'0 0.0
2016-Apr-14 05:31N 29°37' W 095°01'0 0.0
2016-Apr-14 04:31N 29°37' W 095°01'0 0.0
2016-Apr-14 03:31N 29°37' W 095°01'0 0.0
2016-Apr-14 02:28N 29°37' W 095°01'0 0.0
2016-Apr-14 01:31N 29°37' W 095°01'0 0.0
2016-Apr-14 00:31N 29°37' W 095°01'0 0.0
2016-Apr-13 23:31N 29°37' W 095°01'0 0.0
2016-Apr-13 22:31N 29°37' W 095°01'0 0.0
2016-Apr-13 21:31N 29°37' W 095°01'0 0.0
2016-Apr-13 20:31N 29°37' W 095°01'0 0.0
2016-Apr-13 19:31N 29°37' W 095°01'0 0.0
2016-Apr-13 18:31N 29°37' W 095°01'0 0.0
2016-Apr-13 17:31N 29°37' W 095°01'0 0.0
2016-Apr-13 16:31N 29°37' W 095°01'0 0.0
2016-Apr-13 15:31N 29°37' W 095°01'0 0.0
2016-Apr-13 14:31N 29°37' W 095°01'0 0.0
2016-Apr-13 13:31N 29°37' W 095°01'0 0.0
2016-Apr-13 12:31N 29°37' W 095°01'0 0.0
2016-Apr-13 11:31N 29°37' W 095°01'0 0.0
2016-Apr-13 10:31N 29°37' W 095°01'0 0.0
2016-Apr-13 09:31N 29°37' W 095°01'0 0.0
2016-Apr-13 08:31N 29°37' W 095°01'0 0.0
2016-Apr-13 07:31N 29°37' W 095°01'5 5.1
2016-Apr-13 06:33N 29°35' W 094°56'1212.2
2016-Apr-13 05:32N 29°24' W 094°49'  
2016-Apr-10 21:28N 29°21' W 094°46'7 7.9
2016-Apr-10 20:32N 29°22' W 094°54'1 0.2
2016-Apr-10 15:14N 29°22' W 094°55'0 0.0
2016-Apr-10 10:26N 29°22' W 094°55'0 0.0
2016-Apr-10 04:33N 29°22' W 094°55'4 3.7
2016-Apr-10 03:33N 29°22' W 094°51'4 1.2
2016-Apr-10 00:07N 29°21' W 094°46'812.4
2016-Apr-09 23:29N 29°27' W 094°51'  

Dump ship's entire track history